NCAR-RAP Real-Time Weather Data

Output produced by METARs form (10 April 2020  07:29 UTC)
found at http://weather.rap.ucar.edu/surface/
 
KMSN 100653Z AUTO 29006KT 10SM CLR 00/M07 A2997 RMK AO2 SLP156 T00001067
KMSN 100553Z AUTO 29005KT 10SM CLR 00/M07 A2996 RMK AO2 SLP152 60000 T00001067 10028 20000 400720000 53010
KMSN 100453Z AUTO 30011G16KT 10SM FEW065 01/M07 A2994 RMK AO2 SLP148 T00111067
KMSN 100353Z 30007KT 10SM CLR 01/M05 A2993 RMK AO2 SLP144 LAST T00061050
KMSN 100253Z 31009G20KT 10SM CLR 02/M07 A2993 RMK AO2 SLP142 60000 T00171067 52025
KMSN 100153Z 31010G19KT 10SM FEW060 02/M06 A2990 RMK AO2 SLP134 T00171061
KMSN 100053Z 34012G19KT 10SM FEW050 BKN060 02/M03 A2987 RMK AO2 PK WND 32029/2355 SNE20 SLP124 P0000 T00171033
KMSN 092353Z 34013G30KT 10SM -SN FEW049 BKN070 03/M04 A2985 RMK AO2 PK WND 33030/2344 SNB50 SLP116 P0000 60000 T00281039 10072 20028 53033
KMSN 092253Z 33015G25KT 10SM SCT042 04/M06 A2981 RMK AO2 PK WND 32029/2201 SLP102 T00441061
KMSN 092153Z 34013G25KT 10SM FEW044 SCT060 BKN085 06/M06 A2978 RMK AO2 PK WND 34035/2113 SLP091 T00561061
KMSN 092053Z 34014G26KT 10SM BKN065 07/M08 A2975 RMK AO2 PK WND 33031/2017 SLP080 60000 T00671083 55000
KMSN 091953Z 31016G26KT 10SM FEW035 SCT043 BKN065 06/M06 A2975 RMK AO2 PK WND 29026/1952 SNB31E40 SLP079 P0000 T00611056
KMSN 091853Z 29018G28KT 10SM BKN065 BKN080 06/M08 A2975 RMK AO2 PK WND 31030/1832 SNE13 SLP079 P0000 T00561083
KMSN 091753Z 30019G31KT 10SM -SN BKN060 BKN085 06/M07 A2975 RMK AO2 PK WND 29031/1752 SNB04E12B49 SLP079 P0000 60000 T00611072 10072 20017 55001
KMSN 091653Z 32017G28KT 10SM BKN055 BKN070 06/M07 A2975 RMK AO2 PK WND 33029/1633 SNB22E28 SLP078 P0000 T00611067
KMSN 091553Z 31014G25KT 10SM BKN050 05/M07 A2974 RMK AO2 PK WND 30027/1535 SLP078 T00501072
KMSN 091453Z 30014G24KT 10SM BKN040 04/M06 A2975 RMK AO2 PK WND 31026/1440 SLP081 T00441056 58008
KMSN 091353Z 30008G22KT 10SM SCT028 03/M04 A2976 RMK AO2 SLP084 T00331044
KMSN 091253Z 29009G21KT 10SM FEW025 03/M04 A2977 RMK AO2 SLP088 T00281039
KMSN 091153Z 29006KT 10SM CLR 02/M05 A2978 RMK AO2 SLP089 70026 T00171050 10056 20017 53008
KMSN 091053Z 31009G19KT 10SM CLR 02/M06 A2976 RMK AO2 SLP082 T00221061
KMSN 090953Z AUTO 29008KT 10SM CLR 03/M04 A2975 RMK AO2 SLP079 T00281044
KMSN 090853Z AUTO 31007KT 10SM CLR 03/M04 A2975 RMK AO2 SLP080 T00331044 51009